X  Schließen Metar Luftfahrt Wetterdaten     EHRD Rotterdam The Hague Airport
Temperatur
19°C Temperatur
13°C Taupunkt
68% Feuchtigkeit



Wind
37 KM/H
23 MPH
10 M/S
20 KTS



210°
SSW
Aktuelle Wetterlage

Meistens bewölkt Meistens bewölkt
Luftdruck 995.92 (hPa) - 29.41 (inHg)
Sichtweite 6.2 (Meile) - 10 (km)
Flughafen
Flughafen Code EHRD

Position : Rotterdam The Hague Airport
Entfernung: 16 (km)

Metar:
EHRD 211455Z AUTO 21020G32KT 180V260 9999 BKN035 OVC040 19/13 Q0996 TEMPO 21028G42KT -SHRA FEW020TCU

Zeit: 21-10-2020 16:55 CEST